createdAt,value
2022-11-20T00:01:37.897Z,8.10
2022-11-20T00:04:41.399Z,18.13
2022-11-20T00:07:45.466Z,13.15
2022-11-20T00:10:49.335Z,27.52
2022-11-20T00:13:55.514Z,12.68
2022-11-20T00:16:59.430Z,17.25
2022-11-20T00:20:03.280Z,14.20
2022-11-20T00:23:07.537Z,18.17
2022-11-20T00:26:16.938Z,11.25
2022-11-20T00:29:20.961Z,12.93
2022-11-20T00:32:25.635Z,13.50
2022-11-20T00:35:28.796Z,14.82
2022-11-20T00:38:34.045Z,23.45
2022-11-20T00:41:38.049Z,24.05
2022-11-20T00:44:41.600Z,14.45
2022-11-20T00:47:45.358Z,25.40
2022-11-20T00:50:48.466Z,22.90
2022-11-20T00:53:58.422Z,17.05
2022-11-20T00:57:02.192Z,16.75
2022-11-20T01:00:06.136Z,16.27
2022-11-20T01:03:09.670Z,26.35
2022-11-20T01:06:22.568Z,20.92
2022-11-20T01:09:26.546Z,20.85
2022-11-20T01:12:30.258Z,8.50
2022-11-20T01:15:35.693Z,25.33
2022-11-20T01:18:42.078Z,24.33
2022-11-20T01:21:48.273Z,14.77
2022-11-20T01:24:51.841Z,18.60
2022-11-20T01:27:55.596Z,19.33
2022-11-20T01:30:59.531Z,21.77
2022-11-20T01:34:08.483Z,24.45
2022-11-20T01:37:11.896Z,29.73
2022-11-20T01:40:15.249Z,32.03
2022-11-20T01:43:23.219Z,39.20
2022-11-20T01:49:36.452Z,56.53
2022-11-20T01:52:48.336Z,49.47
2022-11-20T01:55:54.459Z,70.80
2022-11-20T01:59:02.842Z,66.38
2022-11-20T02:02:06.719Z,79.85
2022-11-20T02:05:31.985Z,123.53
2022-11-20T02:08:36.737Z,147.18
2022-11-20T02:11:40.414Z,131.40
2022-11-20T02:14:44.175Z,157.15
2022-11-20T02:17:47.894Z,196.60
2022-11-20T02:21:00.348Z,250.98
2022-11-20T02:24:07.169Z,245.45
2022-11-20T02:27:18.436Z,235.05
2022-11-20T02:30:22.508Z,227.88
2022-11-20T02:33:25.859Z,265.45
2022-11-20T02:36:32.777Z,217.48
2022-11-20T02:39:36.491Z,186.23
2022-11-20T02:42:39.850Z,89.07
2022-11-20T02:45:43.637Z,79.50
2022-11-20T02:48:47.799Z,62.88
2022-11-20T02:51:51.552Z,59.28
2022-11-20T02:54:55.596Z,75.57
2022-11-20T02:57:59.038Z,68.47
2022-11-20T03:01:05.664Z,96.25
2022-11-20T03:04:09.720Z,44.93
2022-11-20T03:07:13.572Z,32.40
2022-11-20T03:10:18.412Z,61.78
2022-11-20T03:13:22.394Z,62.08
2022-11-20T03:16:25.819Z,47.25
2022-11-20T03:19:30.125Z,43.72
2022-11-20T03:22:33.894Z,38.45
2022-11-20T03:25:37.470Z,36.33
2022-11-20T03:28:41.829Z,33.15
2022-11-20T03:31:45.633Z,43.63
2022-11-20T03:34:49.399Z,21.73
2022-11-20T03:37:52.963Z,24.67
2022-11-20T03:41:01.250Z,33.15
2022-11-20T03:44:07.172Z,38.85
2022-11-20T03:47:10.771Z,55.10
2022-11-20T03:50:15.895Z,65.50
2022-11-20T03:53:20.057Z,41.33
2022-11-20T03:56:29.363Z,31.05
2022-11-20T03:59:32.970Z,35.72
2022-11-20T04:02:38.756Z,26.52
2022-11-20T04:05:42.163Z,29.67
2022-11-20T04:08:51.010Z,37.22
2022-11-20T04:11:57.168Z,40.55
2022-11-20T04:15:01.605Z,35.40
2022-11-20T04:18:05.389Z,37.17
2022-11-20T04:21:09.817Z,30.27
2022-11-20T04:24:13.526Z,32.67
2022-11-20T04:27:17.645Z,31.88
2022-11-20T04:30:21.457Z,34.03
2022-11-20T04:33:25.834Z,28.17
2022-11-20T04:36:32.247Z,31.67
2022-11-20T04:39:35.973Z,38.88
2022-11-20T04:42:39.954Z,34.50
2022-11-20T04:45:43.910Z,34.17
2022-11-20T04:48:47.492Z,21.35
2022-11-20T04:51:57.251Z,41.50
2022-11-20T04:55:00.966Z,41.55
2022-11-20T04:58:04.629Z,36.03
2022-11-20T05:01:11.971Z,42.33
2022-11-20T05:04:16.030Z,31.20
2022-11-20T05:07:19.472Z,30.90
2022-11-20T05:10:23.234Z,45.30
2022-11-20T05:13:26.835Z,40.35
2022-11-20T05:16:30.979Z,40.25
2022-11-20T05:19:34.358Z,33.95
2022-11-20T05:22:41.323Z,27.88
2022-11-20T05:25:52.360Z,31.52
2022-11-20T05:29:00.142Z,24.63
2022-11-20T05:32:08.799Z,30.67
2022-11-20T05:35:12.093Z,30.95
2022-11-20T05:38:16.334Z,25.20
2022-11-20T05:41:21.893Z,21.42
2022-11-20T05:44:24.953Z,22.08
2022-11-20T05:47:32.542Z,20.35
2022-11-20T05:50:36.499Z,18.35
2022-11-20T05:53:43.860Z,16.42
2022-11-20T05:56:51.631Z,22.20
2022-11-20T05:59:55.041Z,20.20
2022-11-20T06:02:58.713Z,20.60
2022-11-20T06:06:03.839Z,20.63
2022-11-20T06:09:07.165Z,16.10
2022-11-20T06:12:10.851Z,18.33
2022-11-20T06:15:14.622Z,21.95
2022-11-20T06:18:18.371Z,16.95
2022-11-20T06:21:24.080Z,20.45
2022-11-20T06:24:27.673Z,23.38
2022-11-20T06:27:31.340Z,21.80
2022-11-20T06:30:35.023Z,19.70
2022-11-20T06:33:38.827Z,11.27
2022-11-20T06:36:42.657Z,13.70
2022-11-20T06:39:46.347Z,10.35
2022-11-20T06:42:49.646Z,13.50
2022-11-20T06:45:58.366Z,7.68
2022-11-20T06:49:03.001Z,11.15
2022-11-20T06:52:06.949Z,13.77
2022-11-20T06:55:10.260Z,12.00
2022-11-20T06:58:17.525Z,14.18
2022-11-20T07:01:20.633Z,13.18
2022-11-20T07:04:23.687Z,13.00
2022-11-20T07:07:26.995Z,21.27
2022-11-20T07:10:30.912Z,11.88
2022-11-20T07:13:35.113Z,17.02
2022-11-20T07:16:38.809Z,18.90
2022-11-20T07:19:42.270Z,21.75
2022-11-20T07:22:45.531Z,18.67
2022-11-20T07:25:49.054Z,19.02
2022-11-20T07:28:52.292Z,20.42
2022-11-20T07:31:57.508Z,13.80
2022-11-20T07:35:00.656Z,14.60
2022-11-20T07:38:04.606Z,16.85
2022-11-20T07:41:08.040Z,15.40
2022-11-20T07:44:12.147Z,23.63
2022-11-20T07:47:15.424Z,17.33
2022-11-20T07:50:22.001Z,15.32
2022-11-20T07:53:26.090Z,21.33
2022-11-20T07:56:30.193Z,22.02
2022-11-20T07:59:33.389Z,18.52
2022-11-20T08:02:43.456Z,19.08
2022-11-20T08:05:47.275Z,24.50
2022-11-20T08:08:51.077Z,15.48
2022-11-20T08:12:12.581Z,14.38
2022-11-20T08:15:15.807Z,17.55
2022-11-20T08:18:34.885Z,16.45
2022-11-20T08:21:39.377Z,16.02
2022-11-20T08:24:42.925Z,23.25
2022-11-20T08:27:46.678Z,24.00
2022-11-20T08:30:51.832Z,16.63
2022-11-20T08:33:56.199Z,11.65
2022-11-20T08:37:00.653Z,20.13
2022-11-20T08:40:04.617Z,17.85
2022-11-20T08:43:07.971Z,15.10
2022-11-20T08:46:15.010Z,18.90
2022-11-20T08:49:20.293Z,20.20
2022-11-20T08:52:24.718Z,10.70
2022-11-20T08:55:28.576Z,11.30
2022-11-20T08:58:48.816Z,18.25
2022-11-20T09:01:54.840Z,15.95
2022-11-20T09:04:58.966Z,11.05
2022-11-20T09:08:03.030Z,10.95
2022-11-20T09:11:07.567Z,18.95
2022-11-20T09:14:11.289Z,11.57
2022-11-20T09:17:16.829Z,19.25
2022-11-20T09:20:21.009Z,14.00
2022-11-20T09:23:26.004Z,15.57
2022-11-20T09:26:30.670Z,29.30
2022-11-20T09:29:40.467Z,33.88
2022-11-20T09:32:45.698Z,42.28
2022-11-20T09:35:51.867Z,64.32
2022-11-20T09:38:58.385Z,62.78
2022-11-20T09:42:32.570Z,46.22
2022-11-20T09:46:05.785Z,35.85
2022-11-20T09:49:34.863Z,24.60
2022-11-20T09:52:48.549Z,28.38
2022-11-20T09:55:53.212Z,27.48
2022-11-20T09:59:00.412Z,32.80
2022-11-20T10:02:08.564Z,26.08
2022-11-20T10:05:41.107Z,35.75
2022-11-20T10:08:56.779Z,30.60
2022-11-20T10:12:45.568Z,39.15
2022-11-20T10:16:01.460Z,41.08
2022-11-20T10:19:23.356Z,47.95
2022-11-20T10:22:41.979Z,43.88
2022-11-20T10:26:05.138Z,39.95
2022-11-20T10:29:17.285Z,27.80
2022-11-20T10:32:30.071Z,44.85
2022-11-20T10:35:37.284Z,49.67
2022-11-20T10:39:06.253Z,44.03
2022-11-20T10:42:31.398Z,82.15
2022-11-20T10:45:42.382Z,81.97
2022-11-20T10:48:47.680Z,57.80
2022-11-20T10:52:24.108Z,75.40
2022-11-20T10:55:46.857Z,93.75
2022-11-20T10:59:03.378Z,120.30
2022-11-20T11:02:32.723Z,131.30
2022-11-20T11:06:04.269Z,131.90
2022-11-20T11:09:21.904Z,85.50
2022-11-20T11:12:30.105Z,32.40
2022-11-20T11:15:42.083Z,10.63
2022-11-20T11:18:45.130Z,19.45
2022-11-20T11:21:58.160Z,47.40
2022-11-20T11:25:01.909Z,69.35
2022-11-20T11:28:25.745Z,58.03
2022-11-20T11:31:31.566Z,77.38
2022-11-20T11:34:35.806Z,67.35
2022-11-20T11:37:41.241Z,81.70
2022-11-20T11:40:45.793Z,73.40
2022-11-20T11:44:17.190Z,88.63
2022-11-20T11:47:32.472Z,64.63
2022-11-20T11:50:35.858Z,76.75
2022-11-20T11:53:44.444Z,80.20
2022-11-20T11:56:48.451Z,81.07
2022-11-20T12:00:12.367Z,68.82
2022-11-20T12:03:26.319Z,59.88
2022-11-20T12:06:31.447Z,78.80
2022-11-20T12:09:40.899Z,60.95
2022-11-20T12:13:00.796Z,60.50
2022-11-20T12:16:06.049Z,67.65
2022-11-20T12:19:14.957Z,59.13
2022-11-20T12:22:42.364Z,57.97
2022-11-20T12:25:51.726Z,59.58
2022-11-20T12:29:17.211Z,68.63
2022-11-20T12:32:44.701Z,58.75
2022-11-20T12:36:30.535Z,94.72
2022-11-20T12:39:59.819Z,118.25
2022-11-20T12:43:42.362Z,88.50
2022-11-20T12:46:50.242Z,103.00
2022-11-20T12:50:19.702Z,91.57
2022-11-20T12:53:41.968Z,54.65
2022-11-20T12:57:17.499Z,66.32
2022-11-20T13:00:22.931Z,58.65
2022-11-20T13:03:50.784Z,64.20
2022-11-20T13:06:54.029Z,57.42
2022-11-20T13:09:58.371Z,103.35
2022-11-20T13:13:40.285Z,102.60
2022-11-20T13:17:10.886Z,102.88
2022-11-20T13:20:18.450Z,90.10
2022-11-20T13:23:28.237Z,140.85
2022-11-20T13:26:33.493Z,99.32
2022-11-20T13:29:39.105Z,82.07
2022-11-20T13:32:57.515Z,104.53
2022-11-20T13:36:22.782Z,144.05
2022-11-20T13:39:28.845Z,142.45
2022-11-20T13:42:32.569Z,105.70
2022-11-20T13:45:36.061Z,129.07
2022-11-20T13:48:45.273Z,187.38
2022-11-20T13:51:57.268Z,201.18
2022-11-20T13:55:03.861Z,214.50
2022-11-20T13:58:31.326Z,190.10
2022-11-20T14:01:36.893Z,165.77
2022-11-20T14:04:53.509Z,124.57
2022-11-20T14:08:00.072Z,136.93
2022-11-20T14:11:26.405Z,117.45
2022-11-20T14:14:32.920Z,110.82
2022-11-20T14:17:40.702Z,75.00
2022-11-20T14:20:46.947Z,106.00
2022-11-20T14:23:55.671Z,133.90
2022-11-20T14:27:00.924Z,119.18
2022-11-20T14:30:06.153Z,110.40
2022-11-20T14:33:14.646Z,120.18
2022-11-20T14:36:24.023Z,113.93
2022-11-20T14:39:34.112Z,86.45
2022-11-20T14:42:39.549Z,100.13
2022-11-20T14:45:43.654Z,161.23
2022-11-20T14:48:49.890Z,203.38
2022-11-20T14:52:27.175Z,233.57
2022-11-20T14:55:38.832Z,261.75
2022-11-20T14:58:42.466Z,281.75
2022-11-20T15:01:58.535Z,300.70
2022-11-20T15:05:04.887Z,232.88
2022-11-20T15:08:12.122Z,188.43
2022-11-20T15:11:22.126Z,144.55
2022-11-20T15:14:27.324Z,186.75
2022-11-20T15:17:32.569Z,178.02
2022-11-20T15:20:38.074Z,265.40
2022-11-20T15:23:42.236Z,315.77
2022-11-20T15:26:46.116Z,369.40
2022-11-20T15:29:50.129Z,383.75
2022-11-20T15:32:53.618Z,307.38
2022-11-20T15:35:57.016Z,369.90
2022-11-20T15:39:00.793Z,340.70
2022-11-20T15:42:04.191Z,349.98
2022-11-20T15:45:08.511Z,299.45
2022-11-20T15:48:28.960Z,254.68
2022-11-20T15:51:35.905Z,211.13
2022-11-20T15:54:45.133Z,257.90
2022-11-20T15:57:52.372Z,246.93
2022-11-20T16:00:58.496Z,350.38
2022-11-20T16:04:04.382Z,368.65
2022-11-20T16:07:11.365Z,325.70
2022-11-20T16:13:40.558Z,247.02
2022-11-20T16:16:47.946Z,235.15
2022-11-20T16:19:57.342Z,223.45
2022-11-20T16:23:04.785Z,225.32
2022-11-20T16:26:21.602Z,283.73
2022-11-20T16:29:30.740Z,243.85
2022-11-20T16:32:42.424Z,252.90
2022-11-20T16:35:50.944Z,201.80
2022-11-20T16:39:04.904Z,204.93
2022-11-20T16:42:19.014Z,183.10
2022-11-20T16:45:33.727Z,191.18
2022-11-20T16:48:42.230Z,148.18
2022-11-20T16:51:52.498Z,160.00
2022-11-20T16:55:02.038Z,240.27
2022-11-20T16:58:09.630Z,217.95
2022-11-20T17:01:17.702Z,285.25
2022-11-20T17:04:25.483Z,329.20
2022-11-20T17:07:31.538Z,314.70
2022-11-20T17:10:39.375Z,207.18
2022-11-20T17:13:43.566Z,265.95
2022-11-20T17:16:48.020Z,259.73
2022-11-20T17:19:52.358Z,158.18
2022-11-20T17:22:56.999Z,190.75
2022-11-20T17:26:10.729Z,184.15
2022-11-20T17:29:20.498Z,237.95
2022-11-20T17:32:27.988Z,242.20
2022-11-20T17:35:41.531Z,282.05
2022-11-20T17:38:54.273Z,234.95
2022-11-20T17:42:21.504Z,240.35
2022-11-20T17:45:29.830Z,267.27
2022-11-20T17:48:39.470Z,211.50
2022-11-20T17:51:48.799Z,272.33
2022-11-20T17:55:01.329Z,216.88
2022-11-20T17:58:12.509Z,102.95
2022-11-20T18:01:22.881Z,194.57
2022-11-20T18:04:34.262Z,162.45
2022-11-20T18:07:44.292Z,170.23
2022-11-20T18:10:53.027Z,157.95
2022-11-20T18:14:20.369Z,151.05
2022-11-20T18:17:27.954Z,157.13
2022-11-20T18:20:39.750Z,140.65
2022-11-20T18:23:48.720Z,163.65
2022-11-20T18:26:57.345Z,194.05
2022-11-20T18:30:08.517Z,146.27
2022-11-20T18:33:26.965Z,145.75
2022-11-20T18:36:37.640Z,113.97
2022-11-20T18:39:46.379Z,141.95
2022-11-20T18:43:11.178Z,107.63
2022-11-20T18:46:22.973Z,128.85
2022-11-20T18:49:34.054Z,120.53
2022-11-20T18:52:50.346Z,130.57
2022-11-20T18:55:57.946Z,138.60
2022-11-20T18:59:09.138Z,166.40
2022-11-20T19:02:23.489Z,144.20
2022-11-20T19:05:32.721Z,105.45
2022-11-20T19:08:39.949Z,89.00
2022-11-20T19:11:49.041Z,113.10
2022-11-20T19:14:58.396Z,171.98
2022-11-20T19:18:10.081Z,177.70
2022-11-20T19:21:23.517Z,102.22
2022-11-20T19:24:33.982Z,139.35
2022-11-20T19:27:45.058Z,126.13
2022-11-20T19:30:56.960Z,123.53
2022-11-20T19:34:07.842Z,101.32
2022-11-20T19:37:16.459Z,125.97
2022-11-20T19:40:24.563Z,100.70
2022-11-20T19:43:34.312Z,114.13
2022-11-20T19:46:42.242Z,125.95
2022-11-20T19:49:49.986Z,101.93
2022-11-20T19:52:59.768Z,101.75
2022-11-20T19:56:09.210Z,80.35
2022-11-20T19:59:21.364Z,86.97
2022-11-20T20:02:34.775Z,107.55
2022-11-20T20:05:46.346Z,81.68
2022-11-20T20:09:15.554Z,78.47
2022-11-20T20:12:24.991Z,79.03
2022-11-20T20:15:32.493Z,55.15
2022-11-20T20:18:43.561Z,79.90
2022-11-20T20:21:54.242Z,57.42
2022-11-20T20:25:02.855Z,52.10
2022-11-20T20:28:15.685Z,43.00
2022-11-20T20:31:28.554Z,67.95
2022-11-20T20:34:39.161Z,76.05
2022-11-20T20:37:47.178Z,47.22
2022-11-20T20:40:55.061Z,51.20
2022-11-20T20:44:20.301Z,57.92
2022-11-20T20:47:28.201Z,50.45
2022-11-20T20:50:36.713Z,57.92
2022-11-20T20:53:48.317Z,68.40
2022-11-20T20:56:58.270Z,83.78
2022-11-20T21:00:07.295Z,41.55
2022-11-20T21:03:16.744Z,36.53
2022-11-20T21:06:27.824Z,59.72
2022-11-20T21:09:37.869Z,121.88
2022-11-20T21:12:49.872Z,143.27
2022-11-20T21:16:00.240Z,139.70
2022-11-20T21:19:08.761Z,110.03
2022-11-20T21:22:16.773Z,112.03
2022-11-20T21:25:26.507Z,78.07
2022-11-20T21:28:35.131Z,74.72
2022-11-20T21:31:42.941Z,56.40
2022-11-20T21:34:50.541Z,58.83
2022-11-20T21:37:57.824Z,67.30
2022-11-20T21:41:09.418Z,82.95
2022-11-20T21:44:35.348Z,70.22
2022-11-20T21:47:43.989Z,58.42
2022-11-20T21:50:54.858Z,68.13
2022-11-20T21:54:04.600Z,48.63
2022-11-20T21:57:14.723Z,45.20
2022-11-20T22:00:24.196Z,50.95
2022-11-20T22:03:33.745Z,40.70
2022-11-20T22:06:42.989Z,67.40
2022-11-20T22:09:53.036Z,60.40
2022-11-20T22:13:39.963Z,53.50
2022-11-20T22:16:58.191Z,77.95
2022-11-20T22:20:11.966Z,53.28
2022-11-20T22:23:24.346Z,65.43
2022-11-20T22:26:40.219Z,69.40
2022-11-20T22:29:47.441Z,58.22
2022-11-20T22:32:59.428Z,65.93
2022-11-20T22:36:12.720Z,62.80
2022-11-20T22:39:26.825Z,69.65
2022-11-20T22:42:41.277Z,59.88
2022-11-20T22:45:55.896Z,90.65
2022-11-20T22:49:06.224Z,60.22
2022-11-20T22:52:15.987Z,45.55
2022-11-20T22:55:22.774Z,66.65
2022-11-20T22:58:34.109Z,76.20
2022-11-20T23:01:41.495Z,55.72
2022-11-20T23:04:50.125Z,57.95
2022-11-20T23:07:55.181Z,57.65
2022-11-20T23:11:10.305Z,45.72
2022-11-20T23:14:21.526Z,41.80
2022-11-20T23:17:33.956Z,54.45
2022-11-20T23:20:40.924Z,32.08
2022-11-20T23:23:50.455Z,40.47
2022-11-20T23:26:54.958Z,41.15
2022-11-20T23:30:00.317Z,84.70
2022-11-20T23:33:05.762Z,87.65
2022-11-20T23:36:11.230Z,93.20
2022-11-20T23:39:18.328Z,97.35
2022-11-20T23:42:23.451Z,123.78
2022-11-20T23:45:30.661Z,96.90
2022-11-20T23:48:41.323Z,107.95
2022-11-20T23:51:49.117Z,93.07
2022-11-20T23:54:56.617Z,102.38
2022-11-20T23:58:02.884Z,86.38
